createdAt,value
2019-01-15T00:00:08.383Z,102501.76
2019-01-15T00:02:37.451Z,102497.16
2019-01-15T00:05:09.294Z,102502.14
2019-01-15T00:07:38.455Z,102485.03
2019-01-15T00:10:07.841Z,102482.09
2019-01-15T00:12:36.939Z,102486.97
2019-01-15T00:15:06.867Z,102489.48
2019-01-15T00:17:35.913Z,102491.88
2019-01-15T00:20:06.135Z,102482.09
2019-01-15T00:22:35.117Z,102482.52
2019-01-15T00:25:04.842Z,102483.81
2019-01-15T00:27:33.855Z,102479.36
2019-01-15T00:30:03.262Z,102473.31
2019-01-15T00:32:32.266Z,102480.72
2019-01-15T00:35:01.343Z,102475.20
2019-01-15T00:37:30.497Z,102473.00
2019-01-15T00:39:59.548Z,102467.28
2019-01-15T00:42:28.534Z,102465.62
2019-01-15T00:44:57.529Z,102464.27
2019-01-15T00:47:26.523Z,102459.13
2019-01-15T00:49:55.490Z,102461.09
2019-01-15T00:52:24.495Z,102465.78
2019-01-15T00:54:53.475Z,102463.96
2019-01-15T00:57:22.553Z,102457.78
2019-01-15T00:59:51.639Z,102453.48
2019-01-15T01:02:20.658Z,102452.20
2019-01-15T01:04:49.668Z,102456.56
2019-01-15T01:07:18.817Z,102445.19
2019-01-15T01:09:48.151Z,102459.05
2019-01-15T01:12:22.137Z,102445.47
2019-01-15T01:14:46.746Z,102441.16
2019-01-15T01:17:16.350Z,102439.80
2019-01-15T01:19:45.391Z,102431.66
2019-01-15T01:22:14.469Z,102431.37
2019-01-15T01:24:43.477Z,102441.16
2019-01-15T01:27:16.884Z,102446.92
2019-01-15T01:29:46.628Z,102443.13
2019-01-15T01:32:15.683Z,102441.86
2019-01-15T01:34:44.675Z,102432.12
2019-01-15T01:37:13.763Z,102432.95
2019-01-15T01:39:42.726Z,102432.35
2019-01-15T01:42:11.919Z,102438.53
2019-01-15T01:44:40.959Z,102430.01
2019-01-15T01:47:10.010Z,102430.16
2019-01-15T01:49:39.065Z,102426.55
2019-01-15T01:52:08.099Z,102429.78
2019-01-15T01:54:37.215Z,102428.94
2019-01-15T01:57:06.239Z,102424.58
2019-01-15T01:59:35.247Z,102421.86
2019-01-15T02:02:04.435Z,102417.50
2019-01-15T02:04:33.508Z,102418.30
2019-01-15T02:07:02.604Z,102424.30
2019-01-15T02:09:33.122Z,102419.44
2019-01-15T02:12:02.236Z,102420.80
2019-01-15T02:14:32.090Z,102417.55
2019-01-15T02:17:01.160Z,102411.61
2019-01-15T02:19:30.274Z,102412.13
2019-01-15T02:21:59.418Z,102409.73
2019-01-15T02:24:29.138Z,102405.10
2019-01-15T02:26:58.303Z,102403.83
2019-01-15T02:29:28.626Z,102410.91
2019-01-15T02:32:00.406Z,102406.63
2019-01-15T02:34:29.561Z,102410.24
2019-01-15T02:36:58.597Z,102406.45
2019-01-15T02:39:27.653Z,102402.23
2019-01-15T02:41:56.921Z,102390.00
2019-01-15T02:44:25.965Z,102390.90
2019-01-15T02:46:54.997Z,102397.25
2019-01-15T02:49:24.058Z,102384.28
2019-01-15T02:51:53.092Z,102392.71
2019-01-15T02:54:22.143Z,102384.71
2019-01-15T02:56:51.951Z,102380.64
2019-01-15T02:59:20.979Z,102372.48
2019-01-15T03:01:49.992Z,102379.88
2019-01-15T03:04:19.038Z,102365.69
2019-01-15T03:06:48.104Z,102366.77
2019-01-15T03:09:17.142Z,102361.80
2019-01-15T03:11:47.154Z,102363.16
2019-01-15T03:14:16.161Z,102356.66
2019-01-15T03:16:45.258Z,102353.66
2019-01-15T03:19:14.256Z,102358.61
2019-01-15T03:21:43.350Z,102352.30
2019-01-15T03:24:12.643Z,102350.33
2019-01-15T03:26:41.791Z,102337.19
2019-01-15T03:29:10.872Z,102333.58
2019-01-15T03:31:40.036Z,102331.09
2019-01-15T03:34:09.126Z,102335.92
2019-01-15T03:36:38.221Z,102332.31
2019-01-15T03:39:09.787Z,102330.64
2019-01-15T03:41:39.086Z,102326.28
2019-01-15T03:44:08.263Z,102316.69
2019-01-15T03:46:37.274Z,102310.97
2019-01-15T03:49:06.438Z,102312.33
2019-01-15T03:51:35.567Z,102306.90
2019-01-15T03:54:04.750Z,102313.69
2019-01-15T03:56:33.858Z,102314.20
2019-01-15T03:59:02.873Z,102313.60
2019-01-15T04:01:31.941Z,102308.69
2019-01-15T04:04:00.950Z,102309.77
2019-01-15T04:06:30.031Z,102303.50
2019-01-15T04:08:59.132Z,102301.33
2019-01-15T04:11:28.213Z,102293.19
2019-01-15T04:13:57.236Z,102288.27
2019-01-15T04:16:26.314Z,102286.59
2019-01-15T04:18:56.840Z,102286.83
2019-01-15T04:21:25.960Z,102293.94
2019-01-15T04:23:55.113Z,102288.19
2019-01-15T04:26:24.238Z,102281.72
2019-01-15T04:28:53.289Z,102276.89
2019-01-15T04:31:22.317Z,102278.30
2019-01-15T04:33:51.507Z,102282.74
2019-01-15T04:36:20.506Z,102277.63
2019-01-15T04:38:51.036Z,102278.44
2019-01-15T04:41:20.026Z,102274.67
2019-01-15T04:43:49.122Z,102280.48
2019-01-15T04:46:18.142Z,102271.86
2019-01-15T04:48:48.243Z,102270.81
2019-01-15T04:51:17.315Z,102270.50
2019-01-15T04:53:46.421Z,102269.98
2019-01-15T04:56:15.430Z,102266.14
2019-01-15T04:58:46.334Z,102265.53
2019-01-15T05:01:13.812Z,102266.30
2019-01-15T05:03:43.482Z,102255.58
2019-01-15T05:06:12.736Z,102268.33
2019-01-15T05:08:41.726Z,102266.53
2019-01-15T05:11:10.743Z,102265.77
2019-01-15T05:13:39.710Z,102268.02
2019-01-15T05:16:08.780Z,102259.63
2019-01-15T05:18:37.772Z,102258.04
2019-01-15T05:21:06.812Z,102253.73
2019-01-15T05:23:35.827Z,102253.44
2019-01-15T05:26:05.186Z,102250.97
2019-01-15T05:28:34.701Z,102246.81
2019-01-15T05:31:03.791Z,102247.80
2019-01-15T05:33:33.002Z,102246.68
2019-01-15T05:36:02.184Z,102241.12
2019-01-15T05:38:31.618Z,102241.59
2019-01-15T05:41:00.656Z,102239.31
2019-01-15T05:43:35.420Z,102234.27
2019-01-15T05:45:58.843Z,102240.41
2019-01-15T05:48:32.239Z,102231.52
2019-01-15T05:51:10.107Z,102234.86
2019-01-15T05:53:39.096Z,102234.69
2019-01-15T05:56:09.525Z,102233.80
2019-01-15T05:58:37.123Z,102227.16
2019-01-15T06:01:06.341Z,102224.16
2019-01-15T06:03:35.518Z,102222.48
2019-01-15T06:06:04.615Z,102226.27
2019-01-15T06:08:33.684Z,102226.42
2019-01-15T06:11:02.802Z,102225.00
2019-01-15T06:13:31.899Z,102213.60
2019-01-15T06:16:01.041Z,102219.34
2019-01-15T06:18:30.095Z,102222.95
2019-01-15T06:20:59.207Z,102220.84
2019-01-15T06:23:28.329Z,102218.41
2019-01-15T06:25:57.359Z,102220.37
2019-01-15T06:28:26.551Z,102217.23
2019-01-15T06:30:55.708Z,102217.83
2019-01-15T06:33:24.929Z,102214.65
2019-01-15T06:35:54.083Z,102209.59
2019-01-15T06:38:23.185Z,102219.45
2019-01-15T06:40:52.278Z,102209.80
2019-01-15T06:43:21.284Z,102210.98
2019-01-15T06:45:50.319Z,102199.68
2019-01-15T06:48:19.463Z,102203.59
2019-01-15T06:50:48.721Z,102204.17
2019-01-15T06:53:18.829Z,102197.17
2019-01-15T06:55:47.979Z,102197.98
2019-01-15T06:58:17.235Z,102194.98
2019-01-15T07:00:46.275Z,102188.71
2019-01-15T07:03:15.394Z,102193.63
2019-01-15T07:05:46.364Z,102190.91
2019-01-15T07:08:16.527Z,102186.83
2019-01-15T07:10:45.735Z,102181.69
2019-01-15T07:13:15.923Z,102187.72
2019-01-15T07:15:45.068Z,102190.52
2019-01-15T07:18:17.937Z,102185.97
2019-01-15T07:20:46.999Z,102188.45
2019-01-15T07:23:16.073Z,102194.23
2019-01-15T07:25:45.297Z,102192.44
2019-01-15T07:28:14.381Z,102191.69
2019-01-15T07:30:46.915Z,102190.37
2019-01-15T07:33:16.057Z,102190.69
2019-01-15T07:35:49.048Z,102185.53
2019-01-15T07:38:19.119Z,102191.25
2019-01-15T07:40:48.286Z,102181.75
2019-01-15T07:43:17.463Z,102180.11
2019-01-15T07:45:46.483Z,102180.11
2019-01-15T07:48:15.516Z,102181.75
2019-01-15T07:50:44.574Z,102183.42
2019-01-15T07:53:14.318Z,102179.63
2019-01-15T07:55:43.843Z,102181.90
2019-01-15T07:58:13.285Z,102177.34
2019-01-15T08:00:42.401Z,102179.91
2019-01-15T08:03:11.653Z,102182.98
2019-01-15T08:05:40.785Z,102174.30
2019-01-15T08:08:10.174Z,102174.83
2019-01-15T08:10:41.615Z,102176.70
2019-01-15T08:13:09.779Z,102181.38
2019-01-15T08:15:39.185Z,102179.19
2019-01-15T08:18:09.751Z,102180.55
2019-01-15T08:20:39.393Z,102181.66
2019-01-15T08:23:08.743Z,102186.05
2019-01-15T08:25:38.145Z,102181.45
2019-01-15T08:28:07.234Z,102179.86
2019-01-15T08:30:37.499Z,102180.90
2019-01-15T08:33:08.667Z,102181.45
2019-01-15T08:35:38.780Z,102178.18
2019-01-15T08:38:10.319Z,102180.90
2019-01-15T08:40:40.399Z,102180.66
2019-01-15T08:43:09.586Z,102176.37
2019-01-15T08:45:40.498Z,102178.86
2019-01-15T08:48:15.963Z,102178.90
2019-01-15T08:50:45.121Z,102182.53
2019-01-15T08:53:16.360Z,102182.88
2019-01-15T08:55:47.156Z,102175.84
2019-01-15T08:58:17.557Z,102184.59
2019-01-15T09:00:47.705Z,102175.37
2019-01-15T09:03:17.810Z,102174.63
2019-01-15T09:05:47.406Z,102178.23
2019-01-15T09:08:18.732Z,102174.23
2019-01-15T09:10:47.926Z,102188.41
2019-01-15T09:13:17.445Z,102190.89
2019-01-15T09:15:47.206Z,102176.77
2019-01-15T09:18:16.254Z,102174.06
2019-01-15T09:20:45.782Z,102177.89
2019-01-15T09:23:14.911Z,102180.09
2019-01-15T09:25:44.188Z,102170.02
2019-01-15T09:28:13.231Z,102171.38
2019-01-15T09:30:42.309Z,102178.77
2019-01-15T09:33:11.571Z,102167.72
2019-01-15T09:35:40.670Z,102172.98
2019-01-15T09:38:10.281Z,102169.50
2019-01-15T09:40:39.903Z,102163.58
2019-01-15T09:43:09.022Z,102169.30
2019-01-15T09:45:38.220Z,102166.05
2019-01-15T09:48:10.155Z,102162.29
2019-01-15T09:50:40.210Z,102160.16
2019-01-15T09:53:09.565Z,102168.67
2019-01-15T09:55:38.768Z,102169.55
2019-01-15T09:58:08.289Z,102172.86
2019-01-15T10:00:38.730Z,102166.34
2019-01-15T10:03:07.976Z,102164.20
2019-01-15T10:05:38.349Z,102160.44
2019-01-15T10:08:07.650Z,102161.00
2019-01-15T10:10:37.352Z,102160.55
2019-01-15T10:13:07.509Z,102158.41
2019-01-15T10:15:36.873Z,102166.09
2019-01-15T10:18:06.254Z,102159.35
2019-01-15T10:20:40.428Z,102158.62
2019-01-15T10:23:09.611Z,102155.41
2019-01-15T10:25:39.834Z,102163.39
2019-01-15T10:28:09.053Z,102160.17
2019-01-15T10:30:49.403Z,102157.52
2019-01-15T10:33:37.435Z,102156.81
2019-01-15T10:36:05.044Z,102158.20
2019-01-15T10:38:34.559Z,102154.19
2019-01-15T10:41:04.725Z,102144.94
2019-01-15T10:43:34.832Z,102144.16
2019-01-15T10:46:05.008Z,102138.72
2019-01-15T10:48:34.166Z,102138.78
2019-01-15T10:51:03.244Z,102134.73
2019-01-15T10:53:32.359Z,102129.34
2019-01-15T10:56:01.506Z,102126.13
2019-01-15T10:58:30.700Z,102130.52
2019-01-15T11:01:01.431Z,102130.55
2019-01-15T11:03:30.643Z,102122.97
2019-01-15T11:05:59.801Z,102127.36
2019-01-15T11:08:28.853Z,102118.95
2019-01-15T11:10:58.762Z,102117.34
2019-01-15T11:13:28.526Z,102111.39
2019-01-15T11:15:57.750Z,102110.03
2019-01-15T11:18:27.006Z,102107.62
2019-01-15T11:20:56.148Z,102105.48
2019-01-15T11:23:25.654Z,102109.06
2019-01-15T11:25:55.772Z,102100.39
2019-01-15T11:28:26.007Z,102097.73
2019-01-15T11:30:55.267Z,102099.11
2019-01-15T11:33:25.209Z,102088.00
2019-01-15T11:35:54.322Z,102084.44
2019-01-15T11:38:23.607Z,102088.53
2019-01-15T11:40:54.665Z,102081.72
2019-01-15T11:43:23.901Z,102079.27
2019-01-15T11:45:54.352Z,102078.22
2019-01-15T11:48:23.589Z,102071.94
2019-01-15T11:50:52.811Z,102064.85
2019-01-15T11:53:23.154Z,102065.96
2019-01-15T11:55:52.347Z,102061.30
2019-01-15T11:58:21.515Z,102068.10
2019-01-15T12:01:58.619Z,102065.62
2019-01-15T12:06:45.579Z,102072.05
2019-01-15T12:09:21.793Z,102067.47
2019-01-15T12:12:10.150Z,102069.48
2019-01-15T12:14:45.097Z,102063.69
2019-01-15T12:17:20.345Z,102064.45
2019-01-15T12:19:53.680Z,102063.34
2019-01-15T12:23:03.279Z,102058.73
2019-01-15T12:25:40.252Z,102052.20
2019-01-15T12:28:45.942Z,102044.91
2019-01-15T12:32:20.656Z,102046.84
2019-01-15T12:34:59.639Z,102051.52
2019-01-15T12:38:06.824Z,102049.33
2019-01-15T12:40:41.240Z,102047.96
2019-01-15T12:43:14.531Z,102040.82
2019-01-15T12:47:53.608Z,102038.34
2019-01-15T12:50:35.771Z,102034.95
2019-01-15T12:54:07.781Z,102032.73
2019-01-15T12:56:42.919Z,102027.32
2019-01-15T12:59:54.016Z,102026.55
2019-01-15T13:02:28.031Z,102008.16
2019-01-15T13:05:06.568Z,102005.52
2019-01-15T13:07:49.794Z,101989.99
2019-01-15T13:10:24.216Z,102001.09
2019-01-15T13:12:58.811Z,101991.83
2019-01-15T13:17:36.473Z,101991.55
2019-01-15T13:20:17.316Z,101981.44
2019-01-15T13:22:55.405Z,101982.27
2019-01-15T13:25:39.436Z,101968.11
2019-01-15T13:28:14.593Z,101968.11
2019-01-15T13:30:56.369Z,101958.89
2019-01-15T13:35:36.057Z,101960.05
2019-01-15T13:39:08.998Z,101954.16
2019-01-15T13:41:43.146Z,101952.81
2019-01-15T13:46:24.002Z,101950.41
2019-01-15T13:51:02.694Z,101937.06
2019-01-15T13:55:40.571Z,101927.80
2019-01-15T13:58:18.680Z,101922.73
2019-01-15T14:01:09.255Z,101918.14
2019-01-15T14:04:19.933Z,101910.55
2019-01-15T14:07:56.312Z,101904.91
2019-01-15T14:10:35.413Z,101911.45
2019-01-15T14:13:23.648Z,101906.59
2019-01-15T14:15:58.380Z,101896.52
2019-01-15T14:19:05.613Z,101892.72
2019-01-15T14:23:43.692Z,101895.74
2019-01-15T14:26:17.947Z,101887.00
2019-01-15T14:29:00.332Z,101893.48
2019-01-15T14:31:49.311Z,101883.12
2019-01-15T14:34:25.560Z,101878.77
2019-01-15T14:37:09.744Z,101876.04
2019-01-15T14:41:50.123Z,101875.48
2019-01-15T14:45:28.979Z,101871.95
2019-01-15T14:48:14.172Z,101874.11
2019-01-15T14:51:55.400Z,101870.87
2019-01-15T14:55:34.372Z,101865.95
2019-01-15T15:00:11.892Z,101861.59
2019-01-15T15:02:46.021Z,101849.38
2019-01-15T15:05:21.295Z,101847.46
2019-01-15T15:07:57.205Z,101846.10
2019-01-15T15:10:31.282Z,101839.55
2019-01-15T15:14:11.225Z,101840.84
2019-01-15T15:18:51.361Z,101828.74
2019-01-15T15:21:34.681Z,101829.78
2019-01-15T15:24:45.097Z,101835.48
2019-01-15T15:28:22.882Z,101832.20
2019-01-15T15:30:57.125Z,101825.95
2019-01-15T15:33:31.913Z,101832.45
2019-01-15T15:37:05.673Z,101826.21
2019-01-15T15:40:38.264Z,101817.16
2019-01-15T15:45:15.349Z,101810.61
2019-01-15T15:49:51.948Z,101816.57
2019-01-15T15:54:31.792Z,101804.25
2019-01-15T15:57:06.240Z,101801.73
2019-01-15T15:59:40.337Z,101799.22
2019-01-15T16:02:15.122Z,101801.09
2019-01-15T16:04:50.790Z,101798.58
2019-01-15T16:09:28.610Z,101789.56
2019-01-15T16:12:04.643Z,101789.27
2019-01-15T16:14:47.869Z,101785.48
2019-01-15T16:17:27.135Z,101782.20
2019-01-15T16:21:04.682Z,101789.27
2019-01-15T16:23:44.139Z,101780.50
2019-01-15T16:26:18.268Z,101769.57
2019-01-15T16:28:54.266Z,101771.44
2019-01-15T16:31:28.559Z,101771.12
2019-01-15T16:35:06.438Z,101766.71
2019-01-15T16:37:40.193Z,101765.03
2019-01-15T16:40:20.958Z,101756.49
2019-01-15T16:43:28.317Z,101755.86
2019-01-15T16:46:06.708Z,101744.66
2019-01-15T16:48:40.741Z,101742.19
2019-01-15T16:51:15.055Z,101743.28
2019-01-15T16:54:46.988Z,101735.91
2019-01-15T16:57:25.044Z,101722.56
2019-01-15T16:59:59.132Z,101723.87
2019-01-15T17:02:33.722Z,101727.95
2019-01-15T17:05:09.691Z,101723.03
2019-01-15T17:07:51.681Z,101713.52
2019-01-15T17:10:26.783Z,101720.31
2019-01-15T17:13:04.910Z,101714.41
2019-01-15T17:15:57.490Z,101719.64
2019-01-15T17:18:31.623Z,101713.64
2019-01-15T17:21:06.157Z,101712.28
2019-01-15T17:23:41.589Z,101711.70
2019-01-15T17:26:51.745Z,101707.05
2019-01-15T17:29:25.934Z,101708.71
2019-01-15T17:32:35.460Z,101709.77
2019-01-15T17:35:14.021Z,101714.98
2019-01-15T17:37:52.155Z,101712.48
2019-01-15T17:40:25.449Z,101720.38
2019-01-15T17:43:01.013Z,101716.81
2019-01-15T17:45:38.093Z,101714.98
2019-01-15T17:49:14.176Z,101708.97
2019-01-15T17:51:59.184Z,101708.41
2019-01-15T17:55:39.192Z,101707.05
2019-01-15T17:58:30.384Z,101694.74
2019-01-15T18:01:09.740Z,101702.90
2019-01-15T18:03:53.124Z,101695.32
2019-01-15T18:06:22.683Z,101698.82
2019-01-15T18:08:56.754Z,101689.54
2019-01-15T18:11:38.186Z,101684.58
2019-01-15T18:14:12.158Z,101686.12
2019-01-15T18:18:55.126Z,101676.86
2019-01-15T18:21:35.065Z,101672.98
2019-01-15T18:24:09.286Z,101675.13
2019-01-15T18:28:46.900Z,101675.91
2019-01-15T18:32:22.756Z,101668.70
2019-01-15T18:35:01.841Z,101664.59
2019-01-15T18:37:36.960Z,101657.23
2019-01-15T18:40:29.060Z,101658.84
2019-01-15T18:43:06.015Z,101654.45
2019-01-15T18:46:38.829Z,101655.23
2019-01-15T18:49:12.798Z,101651.47
2019-01-15T18:51:46.761Z,101653.66
2019-01-15T18:54:21.584Z,101655.02
2019-01-15T18:56:57.895Z,101652.52
2019-01-15T18:59:32.135Z,101649.00
2019-01-15T19:02:06.473Z,101651.16
2019-01-15T19:04:49.920Z,101634.86
2019-01-15T19:07:24.432Z,101629.68
2019-01-15T19:11:01.632Z,101629.09
2019-01-15T19:13:46.420Z,101621.76
2019-01-15T19:16:20.606Z,101622.28
2019-01-15T19:18:55.438Z,101617.63
2019-01-15T19:22:32.343Z,101613.81
2019-01-15T19:25:09.605Z,101608.38
2019-01-15T19:27:46.843Z,101606.77
2019-01-15T19:30:53.888Z,101600.25
2019-01-15T19:33:32.319Z,101599.97
2019-01-15T19:36:06.591Z,101598.04
2019-01-15T19:38:41.765Z,101598.56
2019-01-15T19:41:23.955Z,101598.55
2019-01-15T19:43:58.196Z,101596.61
2019-01-15T19:46:32.501Z,101602.04
2019-01-15T19:51:09.313Z,101593.58
2019-01-15T19:53:53.834Z,101584.08
2019-01-15T19:57:01.387Z,101582.17
2019-01-15T19:59:34.927Z,101574.30
2019-01-15T20:02:27.018Z,101569.39
2019-01-15T20:05:03.281Z,101569.70
2019-01-15T20:07:38.893Z,101568.34
2019-01-15T20:10:51.164Z,101572.11
2019-01-15T20:13:35.226Z,101560.14
2019-01-15T20:16:21.603Z,101555.21
2019-01-15T20:21:03.063Z,101551.66
2019-01-15T20:23:40.100Z,101546.23
2019-01-15T20:30:30.843Z,101549.48
2019-01-15T20:35:08.706Z,101542.99
2019-01-15T20:37:43.655Z,101537.56
2019-01-15T20:40:18.295Z,101529.41
2019-01-15T20:43:52.367Z,101529.98
2019-01-15T20:46:34.974Z,101520.18
2019-01-15T20:49:13.107Z,101521.27
2019-01-15T20:56:34.811Z,101514.73
2019-01-15T21:01:11.793Z,101515.52
2019-01-15T21:03:46.587Z,101509.77
2019-01-15T21:06:20.972Z,101501.37
2019-01-15T21:09:02.322Z,101498.96
2019-01-15T21:11:36.967Z,101505.75
2019-01-15T21:15:12.428Z,101507.94
2019-01-15T21:17:48.954Z,101493.27
2019-01-15T21:21:23.715Z,101495.16
2019-01-15T21:23:57.039Z,101497.87
2019-01-15T21:26:38.000Z,101487.57
2019-01-15T21:30:10.976Z,101482.94
2019-01-15T21:34:49.549Z,101480.53
2019-01-15T21:37:29.771Z,101473.43
2019-01-15T21:40:04.175Z,101471.27
2019-01-15T21:43:42.326Z,101467.47
2019-01-15T21:46:18.537Z,101463.13
2019-01-15T21:48:52.989Z,101464.23
2019-01-15T21:51:31.286Z,101448.98
2019-01-15T21:54:39.102Z,101449.82
2019-01-15T21:57:22.183Z,101448.77
2019-01-15T21:59:57.521Z,101444.13
2019-01-15T22:02:34.546Z,101441.42
2019-01-15T22:06:08.477Z,101434.09
2019-01-15T22:08:42.631Z,101426.48
2019-01-15T22:11:19.870Z,101420.25
2019-01-15T22:13:54.215Z,101420.78
2019-01-15T22:16:35.171Z,101417.76
2019-01-15T22:19:41.763Z,101417.19
2019-01-15T22:22:21.303Z,101408.19
2019-01-15T22:24:58.767Z,101400.30
2019-01-15T22:29:35.743Z,101394.30
2019-01-15T22:32:12.911Z,101389.65
2019-01-15T22:34:47.636Z,101387.72
2019-01-15T22:38:22.043Z,101381.77
2019-01-15T22:40:58.006Z,101378.22
2019-01-15T22:43:46.245Z,101373.62
2019-01-15T22:46:22.874Z,101374.19
2019-01-15T22:49:02.916Z,101370.69
2019-01-15T22:51:41.374Z,101360.40
2019-01-15T22:54:16.478Z,101363.69
2019-01-15T22:58:56.258Z,101356.08
2019-01-15T23:01:34.965Z,101348.80
2019-01-15T23:04:14.324Z,101352.88
2019-01-15T23:06:49.215Z,101364.02
2019-01-15T23:09:23.437Z,101349.38
2019-01-15T23:11:57.729Z,101345.58
2019-01-15T23:15:38.844Z,101341.24
2019-01-15T23:18:13.176Z,101334.71
2019-01-15T23:20:47.341Z,101330.36
2019-01-15T23:23:36.203Z,101325.99
2019-01-15T23:26:13.300Z,101319.98
2019-01-15T23:28:48.482Z,101318.06
2019-01-15T23:33:29.310Z,101314.81
2019-01-15T23:36:02.390Z,101315.29
2019-01-15T23:38:47.524Z,101311.78
2019-01-15T23:43:26.295Z,101310.38
2019-01-15T23:46:08.500Z,101304.91
2019-01-15T23:48:51.174Z,101295.92
2019-01-15T23:51:31.065Z,101287.51
2019-01-15T23:56:09.463Z,101279.59
2019-01-15T23:59:46.366Z,101273.36
